AirNav   Everest Fuels
 
 401 users online  

01H Lake Maxinkuckee Seaplane Base
Culver, Indiana, USA

GOING TO CULVER?


FAA INFORMATION EFFECTIVE 22 APRIL 2021

Location

FAA Identifier: 01H
Lat/Long: 41-12-22.0000N 086-24-16.0000W
41-12.366667N 086-24.266667W
41.2061111,-86.4044444
(estimated)
Elevation: 733 ft. / 223 m (estimated)
From city: 3 miles SE of CULVER, IN
Time zone: UTC -4 (UTC -5 during Standard Time)
Zip code: 46511

Seaplane Base Operations

Seaplane Base use: Open to the public
Activation date: 11/2007
Control tower: no
ARTCC: CHICAGO CENTER
FSS: TERRE HAUTE FLIGHT SERVICE STATION
NOTAMs facility: HUF (NOTAM-D service available)
Attendance: UNATTNDD
Segmented circle: no

Seaplane Base Communications

CTAF: 122.9
WX AWOS-3 at C65 (11 nm NE): 133.025 (574-935-3854)
WX AWOS-3 at RCR (13 nm SE): 118.775 (574-223-3560)
WX AWOS-3 at OXI (14 nm NW): 135.775 (574-772-2041)

Nearby radio navigation aids

VOR radial/distance  VOR name  Freq  Var
OXIr122/13.1KNOX VOR/DME115.6000E
GSHr222/25.6GOSHEN VORTAC113.7000E
GIJr187/34.0GIPPER VORTAC115.4000E
GUSr343/35.6GRISSOM VORTAC108.4502W

Seaplane Base Services

Runway Information

Runway 12W/30W

Dimensions: 7000 x 2000 ft. / 2134 x 610 m
Surface: water
RUNWAY 12W  RUNWAY 30W
Traffic pattern: leftleft

Seaplane Base Ownership and Management from official FAA records

Ownership: Publicly-owned
Owner: INDIANA DEPT OF NATURAL RESOURCES
402 WEST WASHINGTON ST
INDIANAPOLIS, IN 46204
Phone (317) 232-0935
Manager: LT. KENTON TURNER
402 W. WASHINGTON ST.
INDIANAPOLIS, IN 46204
Phone (317) 232-0935
BOATING LAW ADMINISTRATOR.

Additional Remarks

ALL TFC REMAIN SOUTH OF THE SEALANE.
SEAPLANE OPS PROHIBITED BTN SS-SR. EXPECT HEAVY BOAT TRAFFIC BETWEEN MEMORIAL DAY AND LABOR DAY. DO NOT BLOCK BOAT RAMPS, SEAPLANE DOCKING AREAS LIMITED.
170 FT TOWER 2000 FT N OF THE LAKE.
FOR CD CTC CHICAGO ARTCC AT 630-906-8921.

Instrument Procedures

There are no published instrument procedures at 01H.

Some nearby airports with instrument procedures:

C65 - Plymouth Municipal Airport (11 nm NE)
KRWN - Arens Field Airport (12 nm SW)
KRCR - Fulton County Airport (13 nm SE)
KOXI - Starke County Airport (14 nm NW)
C03 - Nappanee Municipal Airport (26 nm NE)
 
Loc | Ops | Rwys | IFR | FBO | Links
Com | Nav | Svcs | Stats | Notes
Aerial photo
No photo
 
Sectional chart

 
Airport distance calculator
Flying to Lake Maxinkuckee Seaplane Base? Find the distance to fly.

From to 01H

Sunrise and sunset
Times for 15-May-2021
 Local
(UTC-4)
 Zulu
(UTC)
Morning civil twilight05:5709:57
Sunrise06:2810:28
Sunset20:5600:56
Evening civil twilight21:2701:27

Current date and time
Zulu (UTC)  15-May-2021 07:54:34
Local (UTC-4)  15-May-2021 03:54:34
 
METAR
KC65 
11nm NE 
150735Z AUTO 00000KT 10SM CLR 07/04 A3024 RMK A01
KRCR 
13nm SE 
150735Z AUTO 00000KT 10SM CLR 07/05 A3025 RMK AO2
KOXI 
14nm NW 
150722Z AUTO 00000KT 10SM CLR 08/05 A3023 RMK AO1
TAF
KSBN 
30nm N 
150520Z 1506/1606 17002KT P6SM SCT100 BKN250 FM151500 20010KT P6SM OVC080 FM160300 17005KT P6SM VCSH OVC040
KGUS 
36nm S 
142100Z 1421/1603 VRB06KT 9999 FEW090 QNH3019INS BECMG 1516/1517 20010G18KT 9999 FEW090 SCT130 BKN170 QNH3014INS BECMG 1523/1524 VRB06KT 9999 BKN065 OVC090 QNH3012INS TX21/1421Z TN07/1510Z LAST NO AMDS AFT 1503 NEXT 1513
NOTAMs
Click for the latest NOTAMs
NOTAMs are issued by the DoD/FAA and will open in a separate window not controlled by AirNav.

 

 
 

Would you like to see your business listed on this page?

 If your business provides an interesting product or service to pilots, flight crews, aircraft, or users of the Lake Maxinkuckee Seaplane Base, you should consider listing it here.  To start the listing process, click on the button below
 
Add a business
 

Other Pages about Lake Maxinkuckee Seaplane Base

Update a link
 
Copyright © AirNav, LLC. All rights reserved. Privacy Policy  Contact